Terminal Aerodrome Forecast
Issued by NWS

Home | Current Version | Previous Version | Graphics & Text | Print | Product List | Glossary Off
Versions: 1 2 3 4 5 6 7 8 9 10 11 12 13 14 15 16 17 18 19 20 21 22 23 24 25 26 27 28 29 30 31

000
FTUS43 KDDC 301133
TAFHYS
TAF
KHYS 301133Z 3012/3112 18003KT 1/2SM FG OVC001
      TEMPO 3012/3013 1/4SM FG
     FM301500 14007KT P6SM SKC
     FM302000 14010G17KT P6SM SKC
     FM302300 14006KT P6SM SKC=

USA.gov is the U.S. government's official web portal to all federal, state and local government web resources and services.